createdAt,value
2022-08-05T00:00:17.351Z,12.43
2022-08-05T00:02:50.882Z,9.30
2022-08-05T00:06:01.923Z,13.20
2022-08-05T00:08:32.655Z,9.55
2022-08-05T00:10:57.329Z,10.10
2022-08-05T00:13:39.084Z,11.15
2022-08-05T00:16:12.255Z,11.98
2022-08-05T00:18:42.525Z,12.70
2022-08-05T00:21:12.540Z,11.73
2022-08-05T00:23:46.307Z,11.88
2022-08-05T00:26:20.620Z,13.82
2022-08-05T00:28:47.550Z,17.23
2022-08-05T00:31:16.285Z,12.38
2022-08-05T00:34:54.889Z,13.18
2022-08-05T00:37:10.690Z,10.18
2022-08-05T00:39:16.963Z,10.07
2022-08-05T00:41:55.068Z,11.50
2022-08-05T00:44:30.663Z,11.02
2022-08-05T00:47:01.844Z,13.45
2022-08-05T00:49:44.350Z,15.45
2022-08-05T00:52:28.233Z,12.00
2022-08-05T00:54:56.308Z,14.65
2022-08-05T00:57:25.447Z,13.63
2022-08-05T00:59:58.904Z,13.02
2022-08-05T01:02:25.845Z,17.50
2022-08-05T01:04:52.721Z,14.50
2022-08-05T01:07:19.646Z,14.45
2022-08-05T01:09:46.724Z,16.23
2022-08-05T01:12:25.165Z,14.88
2022-08-05T01:15:35.480Z,17.50
2022-08-05T01:18:05.224Z,13.15
2022-08-05T01:20:58.042Z,16.02
2022-08-05T01:23:43.646Z,14.35
2022-08-05T01:26:31.867Z,17.23
2022-08-05T01:29:05.108Z,17.25
2022-08-05T01:31:49.706Z,17.88
2022-08-05T01:34:28.047Z,18.33
2022-08-05T01:37:24.697Z,19.25
2022-08-05T01:39:54.981Z,14.35
2022-08-05T01:42:27.771Z,16.65
2022-08-05T01:44:59.173Z,20.90
2022-08-05T01:47:38.555Z,13.35
2022-08-05T01:50:28.698Z,15.25
2022-08-05T01:53:01.572Z,20.98
2022-08-05T01:55:32.413Z,16.98
2022-08-05T01:58:12.358Z,24.42
2022-08-05T02:00:45.709Z,20.88
2022-08-05T02:03:31.333Z,17.73
2022-08-05T02:06:05.525Z,23.58
2022-08-05T02:08:57.912Z,19.85
2022-08-05T02:11:33.121Z,22.75
2022-08-05T02:14:17.614Z,21.35
2022-08-05T02:16:52.479Z,19.73
2022-08-05T02:19:46.940Z,20.65
2022-08-05T02:22:27.271Z,21.27
2022-08-05T02:25:05.100Z,23.55
2022-08-05T02:27:59.905Z,20.30
2022-08-05T02:30:26.898Z,23.75
2022-08-05T02:32:56.083Z,20.85
2022-08-05T02:35:28.175Z,23.85
2022-08-05T02:38:02.170Z,19.73
2022-08-05T02:40:31.523Z,18.25
2022-08-05T02:42:59.692Z,21.98
2022-08-05T02:45:28.646Z,22.50
2022-08-05T02:48:17.372Z,23.88
2022-08-05T02:50:47.417Z,24.77
2022-08-05T02:53:18.892Z,20.80
2022-08-05T02:56:00.093Z,21.90
2022-08-05T02:58:30.343Z,22.48
2022-08-05T03:01:00.768Z,20.63
2022-08-05T03:03:33.970Z,19.27
2022-08-05T03:06:54.921Z,21.67
2022-08-05T03:09:06.720Z,23.95
2022-08-05T03:11:57.093Z,19.73
2022-08-05T03:14:21.785Z,20.25
2022-08-05T03:16:48.793Z,19.85
2022-08-05T03:19:33.174Z,22.85
2022-08-05T03:22:01.637Z,20.75
2022-08-05T03:24:30.913Z,20.05
2022-08-05T03:26:59.409Z,19.60
2022-08-05T03:29:44.353Z,21.73
2022-08-05T03:32:14.388Z,18.52
2022-08-05T03:34:50.820Z,21.65
2022-08-05T03:37:20.579Z,18.33
2022-08-05T03:40:01.765Z,16.25
2022-08-05T03:42:32.966Z,17.90
2022-08-05T03:45:21.857Z,15.88
2022-08-05T03:47:51.169Z,18.17
2022-08-05T03:50:18.362Z,20.00
2022-08-05T03:55:06.866Z,19.23
2022-08-05T03:56:35.894Z,16.02
2022-08-05T03:59:06.450Z,15.70
2022-08-05T04:01:37.855Z,15.63
2022-08-05T04:04:09.890Z,17.77
2022-08-05T04:06:38.430Z,17.95
2022-08-05T04:09:15.925Z,12.70
2022-08-05T04:11:53.437Z,14.55
2022-08-05T04:14:30.089Z,15.15
2022-08-05T04:17:00.194Z,15.50
2022-08-05T04:19:31.191Z,13.82
2022-08-05T04:22:09.849Z,13.20
2022-08-05T04:24:52.324Z,11.85
2022-08-05T04:27:41.516Z,16.25
2022-08-05T04:30:09.151Z,13.27
2022-08-05T04:32:36.678Z,13.07
2022-08-05T04:35:05.217Z,15.90
2022-08-05T04:38:02.105Z,12.88
2022-08-05T04:40:21.529Z,14.52
2022-08-05T04:42:48.944Z,11.02
2022-08-05T04:45:31.109Z,14.65
2022-08-05T04:48:05.438Z,14.00
2022-08-05T04:51:03.075Z,13.80
2022-08-05T04:53:25.409Z,12.00
2022-08-05T04:56:15.129Z,15.43
2022-08-05T04:58:39.265Z,11.18
2022-08-05T05:01:06.546Z,15.32
2022-08-05T05:03:42.329Z,10.65
2022-08-05T05:06:39.382Z,14.82
2022-08-05T05:08:59.908Z,18.55
2022-08-05T05:11:41.550Z,15.60
2022-08-05T05:14:15.966Z,11.77
2022-08-05T05:16:43.291Z,12.98
2022-08-05T05:19:19.366Z,15.18
2022-08-05T05:21:50.402Z,17.63
2022-08-05T05:24:22.555Z,20.80
2022-08-05T05:27:09.452Z,15.52
2022-08-05T05:30:04.496Z,17.13
2022-08-05T05:32:24.084Z,13.68
2022-08-05T05:34:52.964Z,15.05
2022-08-05T05:37:20.650Z,19.55
2022-08-05T05:39:56.104Z,14.88
2022-08-05T05:42:23.385Z,15.23
2022-08-05T05:44:51.090Z,14.93
2022-08-05T05:47:22.113Z,14.18
2022-08-05T05:49:56.982Z,15.50
2022-08-05T05:52:34.525Z,14.80
2022-08-05T05:55:13.397Z,13.13
2022-08-05T05:57:52.909Z,12.82
2022-08-05T06:00:21.702Z,11.13
2022-08-05T06:02:58.565Z,13.32
2022-08-05T06:05:25.808Z,15.25
2022-08-05T06:07:57.884Z,14.27
2022-08-05T06:10:29.228Z,15.35
2022-08-05T06:12:56.507Z,12.77
2022-08-05T06:15:25.128Z,12.77
2022-08-05T06:18:11.973Z,15.13
2022-08-05T06:20:38.883Z,12.38
2022-08-05T06:23:05.728Z,13.00
2022-08-05T06:26:12.424Z,12.90
2022-08-05T06:28:21.266Z,14.65
2022-08-05T06:30:48.861Z,12.68
2022-08-05T06:33:19.398Z,17.20
2022-08-05T06:36:07.684Z,12.45
2022-08-05T06:38:37.273Z,15.82
2022-08-05T06:41:07.693Z,14.15
2022-08-05T06:43:58.622Z,15.63
2022-08-05T06:46:22.843Z,15.65
2022-08-05T06:48:59.038Z,14.07
2022-08-05T06:51:30.161Z,18.85
2022-08-05T06:54:02.893Z,15.93
2022-08-05T06:56:34.116Z,11.55
2022-08-05T06:59:02.166Z,13.73
2022-08-05T07:01:32.363Z,15.27
2022-08-05T07:04:02.186Z,12.50
2022-08-05T07:06:29.382Z,13.18
2022-08-05T07:08:59.030Z,12.45
2022-08-05T07:11:28.835Z,15.15
2022-08-05T07:14:20.541Z,14.75
2022-08-05T07:17:58.836Z,9.40
2022-08-05T07:22:35.844Z,13.27
2022-08-05T07:25:23.058Z,12.00
2022-08-05T07:27:58.272Z,12.23
2022-08-05T07:30:38.429Z,12.18
2022-08-05T07:33:16.122Z,13.63
2022-08-05T07:36:04.336Z,11.70
2022-08-05T07:38:43.208Z,11.68
2022-08-05T07:42:07.246Z,12.90
2022-08-05T07:44:05.523Z,10.00
2022-08-05T07:46:38.861Z,10.43
2022-08-05T07:49:07.959Z,12.38
2022-08-05T07:51:40.826Z,11.73
2022-08-05T07:54:26.583Z,12.10
2022-08-05T07:57:13.575Z,10.23
2022-08-05T07:59:44.180Z,11.45
2022-08-05T08:02:15.969Z,10.75
2022-08-05T08:04:49.250Z,9.27
2022-08-05T08:07:22.428Z,15.93
2022-08-05T08:09:52.599Z,13.63
2022-08-05T08:12:35.103Z,17.55
2022-08-05T08:15:09.743Z,11.07
2022-08-05T08:17:46.252Z,12.23
2022-08-05T08:20:44.174Z,11.48
2022-08-05T08:23:04.920Z,14.10
2022-08-05T08:25:59.774Z,13.68
2022-08-05T08:28:35.478Z,15.00
2022-08-05T08:31:06.319Z,10.35
2022-08-05T08:33:37.611Z,14.65
2022-08-05T08:36:38.539Z,13.98
2022-08-05T08:38:56.999Z,10.90
2022-08-05T08:41:50.872Z,13.38
2022-08-05T08:45:22.541Z,10.68
2022-08-05T08:47:46.970Z,12.35
2022-08-05T08:50:22.533Z,11.73
2022-08-05T08:52:43.692Z,13.63
2022-08-05T08:58:05.585Z,13.32
2022-08-05T09:00:33.788Z,11.45
2022-08-05T09:03:05.776Z,12.25
2022-08-05T09:08:27.502Z,11.75
2022-08-05T09:10:59.064Z,11.90
2022-08-05T09:13:31.787Z,10.80
2022-08-05T09:16:14.716Z,12.85
2022-08-05T09:18:44.519Z,10.23
2022-08-05T09:21:20.885Z,11.77
2022-08-05T09:24:08.721Z,11.25
2022-08-05T09:26:37.441Z,11.40
2022-08-05T09:29:07.019Z,10.13
2022-08-05T09:32:40.352Z,9.55
2022-08-05T09:34:23.050Z,8.82
2022-08-05T09:36:55.251Z,11.88
2022-08-05T09:39:41.167Z,8.75
2022-08-05T09:42:24.364Z,10.95
2022-08-05T09:44:55.996Z,13.05
2022-08-05T09:47:30.665Z,8.90
2022-08-05T09:50:13.792Z,11.30
2022-08-05T09:52:45.784Z,10.13
2022-08-05T09:55:57.261Z,13.98
2022-08-05T09:58:13.357Z,11.65
2022-08-05T10:00:52.471Z,15.20
2022-08-05T10:03:19.501Z,14.15
2022-08-05T10:05:47.845Z,17.48
2022-08-05T10:08:35.948Z,15.35
2022-08-05T10:11:13.509Z,17.58
2022-08-05T10:13:47.751Z,14.95
2022-08-05T10:16:41.685Z,11.82
2022-08-05T10:19:23.304Z,14.18
2022-08-05T10:21:58.912Z,16.63
2022-08-05T10:24:26.993Z,14.50
2022-08-05T10:27:00.472Z,13.75
2022-08-05T10:30:41.829Z,13.90
2022-08-05T10:33:00.860Z,12.05
2022-08-05T10:35:03.921Z,12.18
2022-08-05T10:37:40.498Z,14.50
2022-08-05T10:40:31.667Z,12.02
2022-08-05T10:43:06.345Z,11.60
2022-08-05T10:45:40.090Z,13.15
2022-08-05T10:51:01.484Z,13.77
2022-08-05T10:53:38.006Z,13.80
2022-08-05T10:56:21.387Z,11.35
2022-08-05T10:58:55.695Z,15.07
2022-08-05T11:01:54.144Z,14.93
2022-08-05T11:04:23.326Z,11.13
2022-08-05T11:07:04.873Z,11.40
2022-08-05T11:09:46.551Z,11.23
2022-08-05T11:12:50.479Z,12.40
2022-08-05T11:15:21.511Z,13.95
2022-08-05T11:18:00.484Z,10.00
2022-08-05T11:20:45.105Z,11.60
2022-08-05T11:23:33.568Z,10.48
2022-08-05T11:26:27.747Z,10.30
2022-08-05T11:28:56.657Z,8.95
2022-08-05T11:31:58.789Z,10.60
2022-08-05T11:34:36.862Z,9.93
2022-08-05T11:37:06.240Z,11.45
2022-08-05T11:39:55.465Z,9.70
2022-08-05T11:42:28.238Z,11.00
2022-08-05T11:45:03.202Z,9.13
2022-08-05T11:47:48.600Z,11.45
2022-08-05T11:50:17.847Z,9.40
2022-08-05T11:52:48.442Z,10.13
2022-08-05T11:55:16.583Z,9.18
2022-08-05T11:58:10.616Z,8.35
2022-08-05T12:00:38.454Z,9.00
2022-08-05T12:03:16.655Z,7.72
2022-08-05T12:10:53.929Z,9.18
2022-08-05T12:13:47.468Z,8.43
2022-08-05T12:16:15.594Z,6.53
2022-08-05T12:18:49.477Z,9.10
2022-08-05T12:21:30.172Z,7.28
2022-08-05T12:24:09.755Z,10.95
2022-08-05T12:26:52.635Z,7.45
2022-08-05T12:29:23.139Z,5.75
2022-08-05T12:31:57.916Z,9.23
2022-08-05T12:34:32.565Z,8.25
2022-08-05T12:37:06.545Z,6.15
2022-08-05T12:39:37.510Z,7.18
2022-08-05T12:42:17.649Z,6.05
2022-08-05T12:44:45.076Z,6.57
2022-08-05T12:47:25.455Z,5.13
2022-08-05T12:50:03.389Z,8.35
2022-08-05T12:52:38.516Z,7.45
2022-08-05T12:55:21.846Z,6.60
2022-08-05T12:58:48.202Z,6.82
2022-08-05T13:02:03.460Z,8.07
2022-08-05T13:03:32.610Z,7.82
2022-08-05T13:06:01.557Z,5.20
2022-08-05T13:08:30.282Z,6.32
2022-08-05T13:11:02.146Z,7.78
2022-08-05T13:14:05.714Z,8.25
2022-08-05T13:16:19.524Z,6.72
2022-08-05T13:18:57.968Z,7.95
2022-08-05T13:21:28.531Z,8.32
2022-08-05T13:24:08.757Z,6.60
2022-08-05T13:26:36.277Z,5.50
2022-08-05T13:29:05.171Z,5.05
2022-08-05T13:32:02.827Z,3.97
2022-08-05T13:34:25.935Z,4.57
2022-08-05T13:36:54.131Z,6.13
2022-08-05T13:40:13.488Z,4.32
2022-08-05T13:42:14.736Z,3.92
2022-08-05T13:44:46.379Z,4.25
2022-08-05T13:47:35.457Z,4.13
2022-08-05T13:52:35.949Z,3.00
2022-08-05T13:55:07.473Z,4.32
2022-08-05T13:57:51.308Z,4.00
2022-08-05T14:00:27.241Z,3.42
2022-08-05T14:02:56.853Z,4.22
2022-08-05T14:05:48.343Z,2.92
2022-08-05T14:08:20.907Z,3.88
2022-08-05T14:11:03.125Z,3.47
2022-08-05T14:13:41.594Z,5.35
2022-08-05T14:16:11.470Z,4.78
2022-08-05T14:18:38.623Z,4.47
2022-08-05T14:22:08.210Z,4.75
2022-08-05T14:23:53.143Z,5.40
2022-08-05T14:26:38.420Z,4.18
2022-08-05T14:29:16.244Z,5.18
2022-08-05T14:32:03.944Z,4.13
2022-08-05T14:37:03.740Z,3.85
2022-08-05T14:39:49.277Z,9.10
2022-08-05T14:42:21.011Z,4.07
2022-08-05T14:44:49.398Z,10.18
2022-08-05T14:47:16.988Z,6.13
2022-08-05T14:50:17.784Z,3.85
2022-08-05T14:52:57.748Z,4.22
2022-08-05T14:55:38.630Z,10.30
2022-08-05T14:58:11.782Z,4.90
2022-08-05T15:00:58.035Z,4.35
2022-08-05T15:03:33.949Z,2.53
2022-08-05T15:06:13.188Z,4.88
2022-08-05T15:09:01.210Z,4.72
2022-08-05T15:11:51.573Z,5.57
2022-08-05T15:14:34.719Z,3.50
2022-08-05T15:17:05.213Z,3.47
2022-08-05T15:19:37.314Z,5.28
2022-08-05T15:22:08.860Z,4.93
2022-08-05T15:24:36.525Z,5.53
2022-08-05T15:27:09.140Z,5.63
2022-08-05T15:29:41.848Z,4.65
2022-08-05T15:32:09.260Z,4.47
2022-08-05T15:34:36.179Z,4.85
2022-08-05T15:37:06.924Z,4.55
2022-08-05T15:41:04.305Z,3.97
2022-08-05T15:42:55.230Z,4.13
2022-08-05T15:45:18.726Z,1.73
2022-08-05T15:48:05.049Z,4.97
2022-08-05T15:50:33.638Z,4.75
2022-08-05T15:53:04.122Z,4.60
2022-08-05T15:56:02.043Z,5.30
2022-08-05T15:58:19.672Z,3.22
2022-08-05T16:01:03.416Z,5.20
2022-08-05T16:03:40.932Z,2.30
2022-08-05T16:06:11.342Z,3.30
2022-08-05T16:08:39.932Z,3.70
2022-08-05T16:11:08.921Z,5.10
2022-08-05T16:13:35.981Z,2.28
2022-08-05T16:16:04.157Z,3.42
2022-08-05T16:18:33.108Z,2.88
2022-08-05T16:21:04.260Z,4.13
2022-08-05T16:23:32.957Z,5.43
2022-08-05T16:26:20.068Z,2.10
2022-08-05T16:28:53.569Z,3.28
2022-08-05T16:31:21.592Z,3.03
2022-08-05T16:33:48.910Z,2.13
2022-08-05T16:36:20.483Z,3.65
2022-08-05T16:38:54.483Z,4.28
2022-08-05T16:42:15.105Z,4.22
2022-08-05T16:44:11.108Z,4.65
2022-08-05T16:46:41.095Z,4.45
2022-08-05T16:49:09.925Z,3.67
2022-08-05T16:51:42.562Z,4.30
2022-08-05T16:54:25.803Z,2.35
2022-08-05T16:56:55.622Z,3.55
2022-08-05T16:59:23.302Z,3.05
2022-08-05T17:01:54.673Z,4.40
2022-08-05T17:04:26.576Z,3.55
2022-08-05T17:06:55.449Z,3.70
2022-08-05T17:09:23.176Z,4.28
2022-08-05T17:11:56.039Z,5.13
2022-08-05T17:14:36.955Z,3.42
2022-08-05T17:17:14.444Z,4.45
2022-08-05T17:22:17.783Z,2.63
2022-08-05T17:24:57.968Z,6.78
2022-08-05T17:27:33.712Z,2.88
2022-08-05T17:30:12.191Z,2.45
2022-08-05T17:32:45.629Z,3.28
2022-08-05T17:35:15.501Z,3.40
2022-08-05T17:37:48.376Z,2.10
2022-08-05T17:40:17.260Z,2.38
2022-08-05T17:42:51.884Z,4.82
2022-08-05T17:45:22.169Z,1.83
2022-08-05T17:47:54.661Z,1.35
2022-08-05T17:50:28.869Z,1.45
2022-08-05T17:52:59.169Z,3.00
2022-08-05T17:55:27.217Z,2.80
2022-08-05T17:58:02.206Z,4.03
2022-08-05T18:00:29.806Z,2.47
2022-08-05T18:02:57.314Z,1.80
2022-08-05T18:05:28.051Z,3.13
2022-08-05T18:07:56.750Z,6.18
2022-08-05T18:10:23.914Z,3.88
2022-08-05T18:12:51.665Z,2.35
2022-08-05T18:15:19.022Z,4.07
2022-08-05T18:17:59.599Z,2.78
2022-08-05T18:20:32.044Z,2.83
2022-08-05T18:23:00.600Z,3.63
2022-08-05T18:25:39.101Z,3.15
2022-08-05T18:28:09.832Z,2.53
2022-08-05T18:30:39.027Z,3.45
2022-08-05T18:33:08.457Z,4.43
2022-08-05T18:35:59.993Z,4.88
2022-08-05T18:38:25.935Z,5.03
2022-08-05T18:41:56.461Z,3.33
2022-08-05T18:43:42.764Z,6.13
2022-08-05T18:46:15.942Z,2.65
2022-08-05T18:48:51.859Z,3.25
2022-08-05T18:52:05.360Z,2.58
2022-08-05T18:54:31.724Z,7.72
2022-08-05T18:57:02.597Z,6.70
2022-08-05T18:59:43.441Z,4.30
2022-08-05T19:02:28.671Z,4.80
2022-08-05T19:06:06.023Z,2.45
2022-08-05T19:07:55.313Z,3.95
2022-08-05T19:10:27.839Z,4.60
2022-08-05T19:12:56.972Z,6.63
2022-08-05T19:15:54.643Z,3.65
2022-08-05T19:18:20.643Z,3.22
2022-08-05T19:20:51.542Z,6.70
2022-08-05T19:24:04.286Z,4.35
2022-08-05T19:26:05.382Z,7.25
2022-08-05T19:28:42.122Z,4.38
2022-08-05T19:31:13.196Z,7.20
2022-08-05T19:33:48.302Z,5.72
2022-08-05T19:36:27.078Z,5.78
2022-08-05T19:39:01.180Z,8.93
2022-08-05T19:41:58.231Z,8.32
2022-08-05T19:44:19.200Z,4.35
2022-08-05T19:46:46.132Z,6.15
2022-08-05T19:49:16.867Z,6.18
2022-08-05T19:52:08.391Z,6.47
2022-08-05T19:54:34.671Z,5.05
2022-08-05T19:57:09.660Z,9.40
2022-08-05T19:59:56.320Z,5.07
2022-08-05T20:02:26.839Z,5.72
2022-08-05T20:04:55.601Z,7.22
2022-08-05T20:07:46.591Z,5.38
2022-08-05T20:10:14.494Z,4.70
2022-08-05T20:12:47.625Z,5.38
2022-08-05T20:15:48.099Z,4.80
2022-08-05T20:18:10.873Z,4.38
2022-08-05T20:20:52.157Z,8.55
2022-08-05T20:23:23.686Z,6.70
2022-08-05T20:26:08.980Z,9.80
2022-08-05T20:28:48.727Z,10.70
2022-08-05T20:31:17.070Z,6.35
2022-08-05T20:33:45.340Z,6.57
2022-08-05T20:36:14.309Z,7.32
2022-08-05T20:38:53.841Z,6.55
2022-08-05T20:41:27.445Z,6.85
2022-08-05T20:44:18.847Z,4.93
2022-08-05T20:47:03.542Z,7.18
2022-08-05T20:49:38.106Z,3.33
2022-08-05T20:52:08.539Z,6.10
2022-08-05T20:54:43.442Z,6.75
2022-08-05T20:57:41.803Z,8.82
2022-08-05T21:00:41.591Z,6.15
2022-08-05T21:03:04.505Z,3.58
2022-08-05T21:05:47.824Z,3.70
2022-08-05T21:08:28.140Z,4.82
2022-08-05T21:11:11.572Z,6.72
2022-08-05T21:13:47.512Z,2.78
2022-08-05T21:16:29.862Z,4.60
2022-08-05T21:19:01.680Z,5.05
2022-08-05T21:24:07.326Z,5.00
2022-08-05T21:26:34.159Z,7.85
2022-08-05T21:29:03.708Z,6.75
2022-08-05T21:31:41.474Z,3.63
2022-08-05T21:34:10.587Z,3.85
2022-08-05T21:36:39.443Z,8.10
2022-08-05T21:39:10.187Z,6.55
2022-08-05T21:41:41.873Z,4.20
2022-08-05T21:44:27.089Z,4.53
2022-08-05T21:46:57.919Z,4.50
2022-08-05T21:50:00.030Z,2.83
2022-08-05T21:52:21.625Z,3.70
2022-08-05T21:54:57.171Z,3.33
2022-08-05T21:57:32.708Z,3.47
2022-08-05T22:00:05.385Z,3.63
2022-08-05T22:02:34.456Z,3.38
2022-08-05T22:05:01.734Z,3.33
2022-08-05T22:07:39.834Z,1.83
2022-08-05T22:10:26.573Z,2.53
2022-08-05T22:12:59.152Z,5.35
2022-08-05T22:16:00.481Z,2.85
2022-08-05T22:18:25.791Z,3.35
2022-08-05T22:20:53.754Z,3.38
2022-08-05T22:24:03.007Z,2.33
2022-08-05T22:26:49.990Z,2.75
2022-08-05T22:29:19.049Z,4.00
2022-08-05T22:31:55.229Z,5.43
2022-08-05T22:34:28.502Z,3.20
2022-08-05T22:36:58.338Z,3.85
2022-08-05T22:39:32.505Z,4.05
2022-08-05T22:42:10.470Z,4.65
2022-08-05T22:44:48.243Z,2.70
2022-08-05T22:47:28.896Z,3.05
2022-08-05T22:50:19.423Z,2.85
2022-08-05T22:52:46.807Z,6.10
2022-08-05T22:55:18.284Z,3.05
2022-08-05T22:57:49.087Z,2.45
2022-08-05T23:00:18.310Z,3.35
2022-08-05T23:02:48.843Z,2.05
2022-08-05T23:05:16.099Z,2.20
2022-08-05T23:07:45.407Z,5.20
2022-08-05T23:10:20.230Z,2.88
2022-08-05T23:12:54.570Z,4.38
2022-08-05T23:15:29.364Z,2.75
2022-08-05T23:18:00.585Z,3.17
2022-08-05T23:20:37.027Z,1.85
2022-08-05T23:23:05.896Z,1.73
2022-08-05T23:25:53.471Z,3.47
2022-08-05T23:28:28.545Z,2.42
2022-08-05T23:30:56.780Z,3.70
2022-08-05T23:34:04.255Z,3.60
2022-08-05T23:36:39.951Z,3.05
2022-08-05T23:39:17.150Z,2.83
2022-08-05T23:41:50.949Z,2.53
2022-08-05T23:44:19.745Z,3.45
2022-08-05T23:46:49.806Z,4.97
2022-08-05T23:49:23.897Z,3.33
2022-08-05T23:52:19.569Z,4.07
2022-08-05T23:54:49.340Z,2.92
2022-08-05T23:57:16.423Z,1.35
